Time;durP1;ratioP1;P1;durP2;ratioP2;P2;SDS_P1;SDS_P2;PMS_P1;PMS_P2;Temp;Humidity;BMP_temperature;BMP_pressure;BME280_temperature;BME280_humidity;BME280_pressure;Samples;Min_cycle;Max_cycle;Signal;HPM_P1;HPM_P2
2024/02/05 00:01:17;;;;;;;3.13;1.10;;;9.00;99.90;;;;;;6238003;22;20012;-86
2024/02/05 00:03:43;;;;;;;6.60;1.30;;;9.00;99.90;;;;;;6236804;22;20020;-86
2024/02/05 00:06:10;;;;;;;5.07;1.30;;;9.10;99.90;;;;;;6237147;23;20004;-85
2024/02/05 00:08:36;;;;;;;3.60;1.40;;;9.00;99.90;;;;;;6236978;23;20077;-85
2024/02/05 00:11:01;;;;;;;3.27;1.43;;;9.00;99.90;;;;;;6236815;22;20028;-86
2024/02/05 00:13:27;;;;;;;2.43;1.37;;;9.00;99.90;;;;;;6236609;23;20027;-86
2024/02/05 00:15:52;;;;;;;3.93;1.23;;;9.10;99.90;;;;;;6238153;23;20004;-85
2024/02/05 00:18:19;;;;;;;4.37;1.13;;;9.20;99.90;;;;;;6237029;23;20007;-86
2024/02/05 00:20:44;;;;;;;2.43;1.23;;;9.10;99.90;;;;;;6237944;22;20023;-85
2024/02/05 00:23:09;;;;;;;4.37;1.70;;;9.10;99.90;;;;;;6237086;23;20056;-85
2024/02/05 00:25:37;;;;;;;2.63;1.50;;;9.10;99.90;;;;;;6210686;23;20000;-85
2024/02/05 00:28:04;;;;;;;8.53;1.40;;;9.20;99.90;;;;;;6236722;23;20015;-85
2024/02/05 00:30:30;;;;;;;8.83;1.93;;;9.30;99.90;;;;;;6238677;22;20000;-86
2024/02/05 00:32:55;;;;;;;4.00;1.40;;;9.40;99.90;;;;;;6239816;23;20028;-86
2024/02/05 00:35:21;;;;;;;4.27;2.00;;;9.50;99.90;;;;;;6240427;23;20396;-86
2024/02/05 00:37:46;;;;;;;5.40;1.40;;;9.50;99.90;;;;;;6238380;23;20011;-86
2024/02/05 00:40:12;;;;;;;6.10;1.90;;;9.60;99.90;;;;;;6239358;22;20425;-85
2024/02/05 00:42:38;;;;;;;5.57;1.50;;;9.60;99.90;;;;;;6238800;23;20045;-85
2024/02/05 00:45:04;;;;;;;5.20;2.00;;;9.50;99.90;;;;;;6239219;23;20008;-86
2024/02/05 00:47:30;;;;;;;4.83;1.97;;;9.60;99.90;;;;;;6238470;23;20012;-86
2024/02/05 00:49:56;;;;;;;7.10;2.40;;;9.50;99.90;;;;;;6239350;22;20091;-85
2024/02/05 00:52:22;;;;;;;4.60;1.50;;;9.50;99.90;;;;;;6239328;23;20004;-85
2024/02/05 00:54:47;;;;;;;6.00;1.93;;;9.50;99.90;;;;;;6238852;23;20000;-85
2024/02/05 00:57:13;;;;;;;5.67;2.40;;;9.50;99.90;;;;;;6238147;23;20471;-86
2024/02/05 00:59:38;;;;;;;6.00;1.70;;;9.50;99.90;;;;;;6239112;22;20034;-86
2024/02/05 01:02:06;;;;;;;4.60;1.80;;;9.50;99.90;;;;;;6238765;23;20388;-85
2024/02/05 01:04:32;;;;;;;5.90;1.90;;;9.60;99.90;;;;;;6239584;23;20000;-85
2024/02/05 01:06:58;;;;;;;5.13;2.07;;;9.60;99.90;;;;;;6237835;23;20039;-85
2024/02/05 01:09:25;;;;;;;4.67;1.73;;;9.50;99.90;;;;;;6239260;23;20004;-85
2024/02/05 01:11:51;;;;;;;5.73;1.97;;;9.50;99.90;;;;;;6239746;23;20008;-85
2024/02/05 01:14:17;;;;;;;8.03;2.13;;;9.50;99.90;;;;;;6238912;23;20015;-85
2024/02/05 01:16:42;;;;;;;5.27;2.43;;;9.50;99.90;;;;;;6238445;23;20068;-86
2024/02/05 01:19:08;;;;;;;4.40;2.00;;;9.50;99.90;;;;;;6238320;23;20024;-86
2024/02/05 01:21:34;;;;;;;6.47;2.20;;;9.50;99.90;;;;;;6238157;22;20081;-86
2024/02/05 01:24:00;;;;;;;6.57;2.10;;;9.40;99.90;;;;;;6238031;23;20714;-86
2024/02/05 01:26:25;;;;;;;6.97;2.30;;;9.50;99.90;;;;;;6237210;23;20000;-86
2024/02/05 01:28:51;;;;;;;5.70;2.00;;;9.40;99.90;;;;;;6238068;23;20062;-86
2024/02/05 01:31:16;;;;;;;7.27;1.90;;;9.30;99.90;;;;;;6238924;22;20333;-86
2024/02/05 01:33:42;;;;;;;7.80;2.17;;;9.20;99.90;;;;;;6238937;23;20087;-85
2024/02/05 01:36:07;;;;;;;7.30;2.40;;;9.20;99.90;;;;;;6238171;23;20038;-86
2024/02/05 01:38:33;;;;;;;5.90;2.50;;;9.10;99.90;;;;;;6237492;23;20020;-86
2024/02/05 01:40:59;;;;;;;6.73;2.33;;;9.10;99.90;;;;;;6237483;22;20360;-85
2024/02/05 01:43:24;;;;;;;6.40;2.23;;;9.00;99.90;;;;;;6237559;23;20003;-86
2024/02/05 01:45:51;;;;;;;9.67;2.80;;;8.90;99.90;;;;;;6238887;23;20011;-85
2024/02/05 01:48:21;;;;;;;8.03;2.67;;;8.80;99.90;;;;;;6211766;23;20012;-86
2024/02/05 01:50:47;;;;;;;11.43;2.50;;;8.90;99.90;;;;;;6238908;22;20014;-85
2024/02/05 01:53:13;;;;;;;5.80;2.67;;;8.90;99.90;;;;;;6240783;23;20010;-86
2024/02/05 01:55:40;;;;;;;9.47;3.27;;;8.90;99.90;;;;;;6213292;23;20001;-86
2024/02/05 01:58:06;;;;;;;11.03;3.10;;;8.80;99.90;;;;;;6240171;23;20015;-86
2024/02/05 02:00:32;;;;;;;6.10;2.60;;;8.80;99.90;;;;;;6240868;22;20004;-86
2024/02/05 02:02:58;;;;;;;6.87;2.47;;;8.80;99.90;;;;;;6238696;23;20069;-86
2024/02/05 02:05:23;;;;;;;9.20;3.23;;;8.80;99.90;;;;;;6238738;23;20111;-85
2024/02/05 02:07:50;;;;;;;7.70;3.10;;;8.80;99.90;;;;;;6238290;23;20012;-86
2024/02/05 02:10:16;;;;;;;12.80;3.80;;;8.80;99.90;;;;;;6238657;22;20882;-86
2024/02/05 02:15:17;;;;;;;12.87;4.30;;;8.80;99.90;;;;;;6213834;22;20473;-76
2024/02/05 02:17:49;;;;;;;9.03;3.67;;;8.70;99.90;;;;;;6229462;23;20001;-76
2024/02/05 02:20:15;;;;;;;8.13;3.30;;;8.70;99.90;;;;;;6214363;23;20514;-76
2024/02/05 02:23:06;;;;;;;4.87;2.40;;;8.70;99.90;;;;;;6213929;23;20008;-76
2024/02/05 02:25:31;;;;;;;6.73;2.97;;;8.60;99.90;;;;;;6192943;23;20005;-77
2024/02/05 02:27:57;;;;;;;9.83;3.47;;;8.60;99.90;;;;;;6183347;23;20316;-76
2024/02/05 02:30:23;;;;;;;8.33;3.17;;;8.60;99.90;;;;;;6183007;23;19993;-76
2024/02/05 02:33:00;;;;;;;8.27;2.90;;;8.70;99.90;;;;;;6183724;23;20009;-76
2024/02/05 02:35:38;;;;;;;5.03;2.60;;;8.60;99.90;;;;;;6183303;23;20005;-76
2024/02/05 02:38:23;;;;;;;9.33;3.20;;;8.60;99.90;;;;;;6183819;23;20021;-76
2024/02/05 02:40:55;;;;;;;6.45;2.80;;;8.50;99.90;;;;;;6183980;23;20036;-76
2024/02/05 02:43:21;;;;;;;8.37;2.67;;;8.50;99.90;;;;;;6183813;23;20005;-76
2024/02/05 02:45:51;;;;;;;10.60;3.83;;;8.40;99.90;;;;;;6183222;23;20033;-76
2024/02/05 02:48:16;;;;;;;10.03;3.70;;;8.40;99.90;;;;;;6183428;23;20036;-76
2024/02/05 02:50:42;;;;;;;11.03;3.93;;;8.30;99.90;;;;;;6184201;23;20454;-76
2024/02/05 02:53:08;;;;;;;8.73;3.23;;;8.20;99.90;;;;;;6183468;23;20009;-76
2024/02/05 02:55:34;;;;;;;11.03;3.40;;;8.10;99.90;;;;;;6183397;23;20102;-76
2024/02/05 02:57:59;;;;;;;9.30;3.40;;;8.10;99.90;;;;;;6183175;23;20005;-76
2024/02/05 03:00:25;;;;;;;7.93;3.33;;;8.00;99.90;;;;;;6184208;23;20005;-76
2024/02/05 03:02:50;;;;;;;10.70;4.30;;;7.90;99.90;;;;;;6183557;23;20093;-76
2024/02/05 03:05:16;;;;;;;10.20;3.87;;;7.90;99.90;;;;;;6183126;23;19997;-76
2024/02/05 03:07:41;;;;;;;12.23;3.37;;;7.90;99.90;;;;;;6183074;23;20005;-76
2024/02/05 03:10:07;;;;;;;9.00;2.90;;;7.90;99.90;;;;;;6184335;23;20005;-76
2024/02/05 03:12:33;;;;;;;12.07;4.43;;;7.90;99.90;;;;;;6182697;23;20001;-76
2024/02/05 03:15:00;;;;;;;9.87;3.50;;;7.90;99.90;;;;;;6183606;23;19997;-76
2024/02/05 03:17:25;;;;;;;8.80;3.10;;;7.80;99.90;;;;;;6212019;23;20013;-76
2024/02/05 03:19:51;;;;;;;12.17;3.30;;;7.80;99.90;;;;;;6214094;23;20074;-76
2024/02/05 03:22:16;;;;;;;13.40;3.50;;;7.80;99.90;;;;;;6213721;23;20040;-76
2024/02/05 03:24:42;;;;;;;11.23;2.97;;;7.70;99.90;;;;;;6213280;23;19997;-76
2024/02/05 03:27:08;;;;;;;9.37;3.27;;;7.80;99.90;;;;;;6213268;23;20448;-76
2024/02/05 03:29:33;;;;;;;9.00;3.17;;;7.70;99.90;;;;;;6213739;23;20000;-76
2024/02/05 03:31:59;;;;;;;6.17;3.33;;;7.80;99.90;;;;;;6213465;23;20084;-76
2024/02/05 03:34:24;;;;;;;9.77;3.93;;;7.70;99.90;;;;;;6213167;23;20415;-76
2024/02/05 03:36:50;;;;;;;9.07;4.03;;;7.70;99.90;;;;;;6212826;23;19999;-75
2024/02/05 03:39:16;;;;;;;10.27;3.93;;;7.60;99.90;;;;;;6213413;23;20009;-76
2024/02/05 03:41:41;;;;;;;7.77;3.50;;;7.60;99.90;;;;;;6213204;23;20320;-76
2024/02/05 03:44:07;;;;;;;8.00;4.03;;;7.50;99.90;;;;;;6212398;23;20007;-76
2024/02/05 03:46:32;;;;;;;12.63;3.80;;;7.40;99.90;;;;;;6213272;23;20007;-76
2024/02/05 03:48:59;;;;;;;9.87;3.80;;;7.30;99.90;;;;;;6213748;23;20080;-76
2024/02/05 03:51:24;;;;;;;10.50;4.33;;;7.20;99.90;;;;;;6213342;23;20359;-76
2024/02/05 03:53:50;;;;;;;14.97;5.10;;;7.20;99.90;;;;;;6213086;23;20027;-76
2024/02/05 03:56:18;;;;;;;9.17;3.67;;;7.20;99.90;;;;;;6213421;23;20005;-77
2024/02/05 03:58:44;;;;;;;13.03;4.77;;;7.10;99.90;;;;;;6213343;23;20056;-76
2024/02/05 04:01:10;;;;;;;11.13;4.23;;;7.20;99.90;;;;;;6213671;23;20412;-76
2024/02/05 04:03:35;;;;;;;8.53;3.83;;;7.20;99.90;;;;;;6213371;23;19993;-76
2024/02/05 04:06:01;;;;;;;12.87;3.87;;;7.10;99.90;;;;;;6214896;23;20000;-76
2024/02/05 04:08:26;;;;;;;14.97;3.93;;;7.10;99.90;;;;;;6215426;23;20074;-76
2024/02/05 04:10:52;;;;;;;14.30;4.33;;;7.10;99.90;;;;;;6215310;23;19997;-76
2024/02/05 04:13:17;;;;;;;8.63;3.60;;;7.10;99.90;;;;;;6214887;23;20080;-76
2024/02/05 04:15:43;;;;;;;11.93;3.63;;;7.10;99.90;;;;;;6214481;23;20012;-77
2024/02/05 04:18:09;;;;;;;9.37;3.57;;;7.10;99.90;;;;;;6215452;23;20005;-77
2024/02/05 04:20:35;;;;;;;11.03;3.77;;;7.10;99.90;;;;;;6215210;23;20012;-76
2024/02/05 04:23:01;;;;;;;13.03;3.53;;;7.10;99.90;;;;;;6215093;23;20031;-76
2024/02/05 04:25:26;;;;;;;8.87;2.80;;;7.00;99.90;;;;;;6214691;23;20001;-77
2024/02/05 04:27:52;;;;;;;8.33;3.10;;;7.00;99.90;;;;;;6215043;23;20032;-76
2024/02/05 04:30:26;;;;;;;8.70;3.00;;;7.00;99.90;;;;;;6215573;23;20019;-76
2024/02/05 04:32:52;;;;;;;6.93;3.00;;;7.00;99.90;;;;;;6215153;23;20020;-76
2024/02/05 04:35:17;;;;;;;10.67;3.93;;;7.00;99.90;;;;;;6214316;23;20023;-76
2024/02/05 04:37:43;;;;;;;6.33;2.60;;;7.00;99.90;;;;;;6214794;23;20318;-75
2024/02/05 04:40:09;;;;;;;11.43;3.40;;;7.00;99.90;;;;;;6214731;23;20051;-77
2024/02/05 04:42:34;;;;;;;9.83;2.50;;;7.00;99.90;;;;;;6214857;23;20095;-76
2024/02/05 04:45:00;;;;;;;10.33;2.67;;;6.90;99.90;;;;;;6214259;23;20055;-76
2024/02/05 04:47:25;;;;;;;7.77;2.60;;;6.80;99.90;;;;;;6215056;23;20423;-76
2024/02/05 04:49:52;;;;;;;6.83;2.40;;;6.80;99.90;;;;;;6215230;23;20001;-76
2024/02/05 04:52:18;;;;;;;8.83;2.77;;;6.80;99.90;;;;;;6214609;23;20414;-77
2024/02/05 04:54:43;;;;;;;7.63;2.27;;;6.70;99.90;;;;;;6214044;23;20004;-76
2024/02/05 04:57:09;;;;;;;6.40;2.50;;;6.70;99.90;;;;;;6214529;23;20011;-76
2024/02/05 04:59:35;;;;;;;5.97;2.40;;;6.60;99.90;;;;;;6215437;23;20009;-76
2024/02/05 05:02:00;;;;;;;10.50;2.47;;;6.50;99.90;;;;;;6214824;23;20005;-76
2024/02/05 05:04:26;;;;;;;8.37;3.07;;;6.50;99.90;;;;;;6214191;23;20001;-76
2024/02/05 05:06:51;;;;;;;5.57;2.40;;;6.40;99.90;;;;;;6214055;23;20041;-76
2024/02/05 05:09:17;;;;;;;6.53;2.43;;;6.40;99.90;;;;;;6213683;23;20000;-77
2024/02/05 05:11:43;;;;;;;9.30;2.90;;;6.40;99.90;;;;;;6214420;23;19997;-76
2024/02/05 05:14:08;;;;;;;10.47;2.60;;;6.40;99.90;;;;;;6213445;23;20055;-76
2024/02/05 05:16:34;;;;;;;9.53;3.00;;;6.30;99.90;;;;;;6211245;23;20087;-76
2024/02/05 05:19:01;;;;;;;8.93;2.60;;;6.20;99.90;;;;;;6212249;23;20079;-76
2024/02/05 05:21:27;;;;;;;6.73;2.30;;;6.20;99.90;;;;;;6213334;23;19996;-76
2024/02/05 05:23:52;;;;;;;8.00;2.10;;;6.10;99.90;;;;;;6212963;23;20104;-76
2024/02/05 05:26:21;;;;;;;7.50;2.70;;;6.10;99.90;;;;;;6213111;23;20035;-76
2024/02/05 05:28:48;;;;;;;7.43;2.63;;;6.00;99.90;;;;;;6214561;23;20012;-76
2024/02/05 05:31:16;;;;;;;7.97;2.37;;;5.90;99.90;;;;;;6213501;23;20080;-76
2024/02/05 05:33:45;;;;;;;9.60;2.07;;;5.90;99.90;;;;;;6213267;23;20028;-76
2024/02/05 05:36:11;;;;;;;7.87;2.47;;;5.80;99.90;;;;;;6214323;23;20004;-76
2024/02/05 05:38:37;;;;;;;8.43;2.20;;;5.80;99.90;;;;;;6214885;23;20008;-76
2024/02/05 05:41:05;;;;;;;7.87;2.70;;;5.80;99.90;;;;;;6214157;23;19997;-76
2024/02/05 05:43:31;;;;;;;5.30;2.73;;;5.70;99.90;;;;;;6214697;23;20039;-76
2024/02/05 05:45:57;;;;;;;6.47;2.47;;;5.70;99.90;;;;;;6213811;23;19997;-76
2024/02/05 05:48:22;;;;;;;4.97;2.20;;;5.60;99.90;;;;;;6214303;23;20127;-76
2024/02/05 05:50:48;;;;;;;7.77;2.37;;;5.70;99.90;;;;;;6213984;23;20044;-76
2024/02/05 05:53:14;;;;;;;8.50;2.63;;;5.70;99.90;;;;;;6214074;23;20047;-78
2024/02/05 05:55:43;;;;;;;4.57;1.90;;;5.60;99.90;;;;;;6208808;23;20005;-78
2024/02/05 05:58:09;;;;;;;6.77;2.17;;;5.50;99.90;;;;;;6211524;23;20005;-78
2024/02/05 06:00:34;;;;;;;10.97;3.27;;;5.50;99.90;;;;;;6213379;23;20422;-78
2024/02/05 06:03:00;;;;;;;8.97;2.50;;;5.50;99.90;;;;;;6214300;23;20008;-78
2024/02/05 06:05:26;;;;;;;5.73;2.53;;;5.50;99.90;;;;;;6212905;23;20001;-78
2024/02/05 06:07:51;;;;;;;7.03;2.40;;;5.50;99.90;;;;;;6212717;23;20094;-78
2024/02/05 06:10:17;;;;;;;7.77;2.40;;;5.50;99.90;;;;;;6213174;23;20624;-78
2024/02/05 06:12:44;;;;;;;6.63;2.40;;;5.50;99.90;;;;;;6213405;23;20359;-78
2024/02/05 06:15:11;;;;;;;5.57;2.10;;;5.60;99.90;;;;;;6211877;23;20004;-78
2024/02/05 06:17:37;;;;;;;9.83;2.67;;;5.60;99.90;;;;;;6212473;23;20493;-78
2024/02/05 06:20:05;;;;;;;6.20;2.27;;;5.50;99.90;;;;;;6212756;23;20010;-78
2024/02/05 06:22:31;;;;;;;9.07;2.10;;;5.50;99.90;;;;;;6212168;23;20062;-78
2024/02/05 06:24:57;;;;;;;7.37;2.70;;;5.40;99.90;;;;;;6213451;23;20087;-78
2024/02/05 06:27:22;;;;;;;6.17;2.40;;;5.40;99.90;;;;;;6212628;23;20067;-79
2024/02/05 06:29:48;;;;;;;6.80;2.73;;;5.30;99.90;;;;;;6212541;23;20485;-79
2024/02/05 06:32:13;;;;;;;6.70;2.50;;;5.30;99.90;;;;;;6212809;23;20050;-79
2024/02/05 06:34:39;;;;;;;8.20;2.90;;;5.20;99.90;;;;;;6212407;23;20035;-78
2024/02/05 06:37:05;;;;;;;6.97;2.30;;;5.20;99.90;;;;;;6212579;23;20009;-78
2024/02/05 06:39:30;;;;;;;6.60;2.67;;;5.10;99.90;;;;;;6212177;23;20091;-78
2024/02/05 06:41:56;;;;;;;6.27;2.50;;;5.10;99.90;;;;;;6212614;23;20050;-80
2024/02/05 06:44:22;;;;;;;4.40;2.00;;;5.10;99.90;;;;;;6212067;23;20489;-79
2024/02/05 06:46:47;;;;;;;9.10;2.60;;;5.10;99.90;;;;;;6212365;23;20016;-78
2024/02/05 06:49:14;;;;;;;10.77;2.40;;;5.00;99.90;;;;;;6213117;23;20005;-78
2024/02/05 06:51:40;;;;;;;7.47;2.60;;;5.00;99.90;;;;;;6212672;23;20007;-78
2024/02/05 06:54:06;;;;;;;4.57;2.40;;;5.00;99.90;;;;;;6213705;23;20000;-78
2024/02/05 06:56:32;;;;;;;5.47;2.60;;;4.90;99.90;;;;;;6213113;23;20001;-78
2024/02/05 06:58:57;;;;;;;6.53;2.60;;;4.90;99.90;;;;;;6213092;23;19996;-79
2024/02/05 07:01:23;;;;;;;7.37;2.70;;;4.90;99.90;;;;;;6213594;23;20088;-80
2024/02/05 07:03:49;;;;;;;5.03;2.13;;;4.90;99.90;;;;;;6210399;23;20363;-81
2024/02/05 07:06:14;;;;;;;5.53;2.97;;;4.80;99.90;;;;;;6212396;23;20043;-78
2024/02/05 07:08:41;;;;;;;6.83;2.27;;;4.80;99.90;;;;;;6212535;23;20114;-78
2024/02/05 07:11:07;;;;;;;4.93;2.10;;;4.80;99.90;;;;;;6212173;23;20004;-79
2024/02/05 07:13:33;;;;;;;4.27;2.20;;;4.80;99.90;;;;;;6212720;23;20012;-79
2024/02/05 07:15:59;;;;;;;7.40;2.97;;;4.80;99.90;;;;;;6211444;23;20034;-79
2024/02/05 07:18:24;;;;;;;6.63;2.93;;;4.80;99.90;;;;;;6213200;23;20587;-78
2024/02/05 07:20:50;;;;;;;8.40;2.37;;;4.80;99.90;;;;;;6211705;23;20477;-78
2024/02/05 07:23:15;;;;;;;3.77;2.53;;;4.80;99.90;;;;;;6212701;23;19993;-78
2024/02/05 07:25:41;;;;;;;4.43;2.13;;;4.90;99.90;;;;;;6210353;23;20001;-81
2024/02/05 07:28:06;;;;;;;3.73;2.53;;;4.90;99.90;;;;;;6212089;23;20020;-77
2024/02/05 07:30:32;;;;;;;5.60;2.10;;;4.90;99.90;;;;;;6210947;23;20008;-81
2024/02/05 07:32:58;;;;;;;6.07;2.23;;;5.00;99.90;;;;;;6212295;23;20031;-80
2024/02/05 07:35:23;;;;;;;4.27;2.37;;;5.10;99.90;;;;;;6211467;23;20000;-80
2024/02/05 07:37:49;;;;;;;4.27;2.30;;;5.20;99.90;;;;;;6212228;23;20028;-79
2024/02/05 07:40:15;;;;;;;3.03;2.57;;;5.20;99.90;;;;;;6212155;23;20470;-80
2024/02/05 07:42:41;;;;;;;6.13;2.40;;;5.30;99.90;;;;;;6211996;23;20007;-80
2024/02/05 07:45:06;;;;;;;6.20;2.57;;;5.30;99.90;;;;;;6212026;23;20072;-79
2024/02/05 07:47:32;;;;;;;5.10;2.17;;;5.40;99.90;;;;;;6211715;23;20031;-80
2024/02/05 07:49:57;;;;;;;4.20;2.27;;;5.40;99.90;;;;;;6212466;23;20078;-78
2024/02/05 07:52:23;;;;;;;5.73;2.47;;;5.50;99.90;;;;;;6211642;23;20009;-87
2024/02/05 07:54:49;;;;;;;5.37;2.77;;;5.50;99.90;;;;;;6211409;23;20004;-79
2024/02/05 07:57:14;;;;;;;6.43;2.60;;;5.60;99.90;;;;;;6211686;23;20083;-80
2024/02/05 07:59:40;;;;;;;6.97;2.80;;;5.70;99.90;;;;;;6212546;23;20028;-79
2024/02/05 08:02:06;;;;;;;5.73;3.00;;;5.80;99.90;;;;;;6212004;23;20522;-79
2024/02/05 08:04:32;;;;;;;6.67;2.80;;;5.80;99.90;;;;;;6210971;23;20008;-79
2024/02/05 08:06:59;;;;;;;3.63;2.30;;;6.00;99.90;;;;;;6212050;23;20005;-80
2024/02/05 08:09:25;;;;;;;5.90;2.60;;;6.00;99.90;;;;;;6212363;23;20000;-79
2024/02/05 08:11:51;;;;;;;5.57;2.50;;;6.10;99.90;;;;;;6212535;23;20001;-79
2024/02/05 08:14:17;;;;;;;4.27;2.73;;;6.10;99.90;;;;;;6211564;23;20024;-79
2024/02/05 08:16:42;;;;;;;6.00;3.07;;;6.20;99.90;;;;;;6211553;23;20342;-79
2024/02/05 08:19:09;;;;;;;7.37;2.60;;;6.20;99.90;;;;;;6212690;23;20001;-79
2024/02/05 08:21:36;;;;;;;4.90;3.10;;;6.10;99.90;;;;;;6211325;23;20008;-79
2024/02/05 08:24:01;;;;;;;4.63;2.77;;;6.10;99.90;;;;;;6210750;23;20008;-78
2024/02/05 08:26:27;;;;;;;4.67;2.70;;;6.10;99.90;;;;;;6204579;23;20312;-79
2024/02/05 08:28:53;;;;;;;4.00;2.53;;;6.10;99.90;;;;;;6210032;23;20031;-78
2024/02/05 08:31:20;;;;;;;6.67;2.60;;;6.10;99.90;;;;;;6211455;23;20000;-79
2024/02/05 08:33:46;;;;;;;6.87;2.90;;;6.10;99.90;;;;;;6211347;23;19997;-80
2024/02/05 08:36:12;;;;;;;4.73;2.47;;;6.20;99.90;;;;;;6211215;23;20011;-79
2024/02/05 08:38:38;;;;;;;4.47;2.70;;;6.30;99.90;;;;;;6211662;23;20075;-79
2024/02/05 08:41:04;;;;;;;6.23;3.03;;;6.30;99.90;;;;;;6210600;23;20024;-79
2024/02/05 08:43:29;;;;;;;7.53;3.23;;;6.40;99.90;;;;;;6212472;23;20319;-79
2024/02/05 08:45:55;;;;;;;4.63;3.00;;;6.50;99.90;;;;;;6210171;23;20027;-79
2024/02/05 08:48:20;;;;;;;5.37;3.03;;;6.60;99.90;;;;;;6212261;23;20119;-80
2024/02/05 08:50:46;;;;;;;7.20;4.17;;;6.70;99.90;;;;;;6211961;23;20334;-79
2024/02/05 08:53:12;;;;;;;5.10;2.60;;;6.80;99.90;;;;;;6213493;23;20088;-80
2024/02/05 08:55:38;;;;;;;4.23;2.23;;;6.80;99.90;;;;;;6211914;23;20000;-79
2024/02/05 08:58:04;;;;;;;4.00;2.37;;;6.80;99.90;;;;;;6214601;23;20024;-79
2024/02/05 09:00:29;;;;;;;4.77;2.13;;;6.90;99.90;;;;;;6213370;23;20004;-80
2024/02/05 09:02:55;;;;;;;3.03;1.87;;;6.90;99.90;;;;;;6213552;23;20086;-78
2024/02/05 09:05:21;;;;;;;4.33;1.93;;;6.90;99.90;;;;;;6212971;23;20322;-79
2024/02/05 09:07:47;;;;;;;4.57;2.00;;;7.00;99.90;;;;;;6213623;23;20013;-80
2024/02/05 09:10:13;;;;;;;5.13;2.30;;;7.10;99.90;;;;;;6213910;23;20031;-79
2024/02/05 09:12:38;;;;;;;7.03;2.00;;;7.10;99.90;;;;;;6212620;23;20482;-82
2024/02/05 09:15:04;;;;;;;4.40;1.90;;;7.10;99.90;;;;;;6214226;23;20005;-79
2024/02/05 09:17:30;;;;;;;5.47;1.90;;;7.20;99.90;;;;;;6213652;23;20013;-79
2024/02/05 09:19:56;;;;;;;8.23;2.03;;;7.30;99.90;;;;;;6214819;23;20008;-79
2024/02/05 09:22:22;;;;;;;11.17;2.47;;;7.30;99.90;;;;;;6213339;23;20005;-79
2024/02/05 09:24:48;;;;;;;3.67;1.90;;;7.20;99.90;;;;;;6214253;23;20027;-79
2024/02/05 09:27:13;;;;;;;6.97;2.20;;;7.30;99.90;;;;;;6214107;23;20402;-80
2024/02/05 09:29:39;;;;;;;6.17;2.60;;;7.30;99.90;;;;;;6214829;23;20051;-79
2024/02/05 09:32:08;;;;;;;6.00;1.90;;;7.50;99.90;;;;;;6214305;23;20339;-79
2024/02/05 09:34:34;;;;;;;10.83;2.30;;;7.50;99.90;;;;;;6214545;23;20001;-79
2024/02/05 09:37:03;;;;;;;11.07;2.53;;;7.60;99.90;;;;;;6214876;23;20008;-80
2024/02/05 09:39:28;;;;;;;11.17;2.60;;;7.60;99.90;;;;;;6214096;23;20083;-80
2024/02/05 09:41:59;;;;;;;7.10;2.27;;;7.60;99.90;;;;;;6213914;23;20515;-79
2024/02/05 09:44:27;;;;;;;12.87;2.67;;;7.60;99.90;;;;;;6214438;23;20005;-80
2024/02/05 09:46:55;;;;;;;13.20;2.37;;;7.70;99.90;;;;;;6213062;23;20009;-80
2024/02/05 09:49:21;;;;;;;9.77;2.67;;;7.80;99.90;;;;;;6213846;23;20008;-80
2024/02/05 09:51:47;;;;;;;7.60;2.43;;;7.80;99.90;;;;;;6213991;23;20469;-79
2024/02/05 09:54:16;;;;;;;13.67;2.67;;;7.90;99.90;;;;;;6213581;23;20008;-81
2024/02/05 09:56:42;;;;;;;14.10;2.90;;;8.00;99.90;;;;;;6214614;23;20031;-80
2024/02/05 09:59:11;;;;;;;14.97;3.40;;;8.00;99.90;;;;;;6214929;23;20005;-80
2024/02/05 10:01:38;;;;;;;10.57;2.90;;;8.10;99.90;;;;;;6214287;23;20075;-80
2024/02/05 10:04:07;;;;;;;8.73;2.60;;;8.20;99.90;;;;;;6213319;23;20099;-80
2024/02/05 10:06:37;;;;;;;10.63;2.83;;;8.20;99.90;;;;;;6214057;23;20011;-80
2024/02/05 10:09:04;;;;;;;13.90;3.13;;;8.30;99.90;;;;;;6215247;23;20059;-80
2024/02/05 10:11:31;;;;;;;18.63;3.07;;;8.40;99.90;;;;;;6214769;23;20052;-79
2024/02/05 10:13:57;;;;;;;20.07;3.13;;;8.50;99.90;;;;;;6218277;23;20012;-80
2024/02/05 10:16:23;;;;;;;15.10;3.30;;;8.60;99.90;;;;;;6219123;23;20012;-80
2024/02/05 10:18:49;;;;;;;16.23;3.70;;;8.70;99.90;;;;;;6216926;23;20007;-73
2024/02/05 10:21:16;;;;;;;15.83;3.87;;;8.70;99.90;;;;;;6213223;23;20067;-72
2024/02/05 10:23:43;;;;;;;12.77;3.40;;;8.80;99.90;;;;;;6212011;23;20015;-71
2024/02/05 10:26:09;;;;;;;13.27;3.10;;;8.90;99.90;;;;;;6212678;23;20465;-72
2024/02/05 10:28:37;;;;;;;12.63;3.20;;;9.10;99.90;;;;;;6212844;23;20012;-78
2024/02/05 10:31:07;;;;;;;15.73;4.20;;;9.10;99.90;;;;;;6214151;23;20338;-77
2024/02/05 10:33:33;;;;;;;10.83;2.50;;;9.20;99.90;;;;;;6212702;23;20139;-78
2024/02/05 10:35:58;;;;;;;24.77;3.80;;;9.20;99.90;;;;;;6210840;23;20041;-80
2024/02/05 10:38:28;;;;;;;10.77;2.80;;;9.30;99.90;;;;;;6213676;23;19997;-77
2024/02/05 10:40:54;;;;;;;13.27;3.37;;;9.30;99.90;;;;;;6212196;23;20016;-77
2024/02/05 10:43:20;;;;;;;19.43;4.23;;;9.40;99.90;;;;;;6213332;23;19997;-77
2024/02/05 10:45:45;;;;;;;18.60;3.57;;;9.50;99.90;;;;;;6211740;23;20013;-78
2024/02/05 10:48:11;;;;;;;16.80;3.33;;;9.70;99.90;;;;;;6215353;23;20100;-80
2024/02/05 10:50:36;;;;;;;12.33;3.63;;;9.80;99.90;;;;;;6214059;23;20080;-77
2024/02/05 10:53:02;;;;;;;13.93;3.70;;;9.80;99.90;;;;;;6216653;23;20477;-80
2024/02/05 10:55:28;;;;;;;17.43;3.67;;;9.80;99.90;;;;;;6219023;23;20008;-81
2024/02/05 10:57:56;;;;;;;17.70;4.40;;;10.00;99.90;;;;;;6219403;23;20008;-80
2024/02/05 11:00:21;;;;;;;11.33;3.07;;;10.00;99.90;;;;;;6215089;23;20004;-79
2024/02/05 11:02:54;;;;;;;11.40;3.27;;;10.20;99.90;;;;;;6218753;23;20062;-83
2024/02/05 11:05:22;;;;;;;14.13;3.20;;;10.20;99.90;;;;;;6220401;23;20075;-79
2024/02/05 11:08:23;;;;;;;12.37;3.20;;;10.30;99.90;;;;;;6220399;23;20009;-80
2024/02/05 11:10:52;;;;;;;14.80;3.03;;;10.30;99.90;;;;;;6098659;23;20558;-80
2024/02/05 11:13:37;;;;;;;14.00;3.33;;;10.50;99.90;;;;;;6198851;23;20338;-79
2024/02/05 11:16:03;;;;;;;16.27;4.77;;;10.60;99.90;;;;;;6220173;23;20013;-79
2024/02/05 11:18:35;;;;;;;11.57;3.40;;;10.70;99.90;;;;;;6221130;23;20427;-80
2024/02/05 11:21:04;;;;;;;10.33;3.00;;;10.70;99.90;;;;;;6221707;23;20000;-79
2024/02/05 11:23:33;;;;;;;10.17;2.70;;;10.80;99.90;;;;;;6221845;23;20004;-79
2024/02/05 11:25:59;;;;;;;13.40;3.43;;;10.90;99.90;;;;;;6221606;23;20001;-79
2024/02/05 11:28:26;;;;;;;13.53;2.80;;;10.90;99.90;;;;;;6221481;23;20022;-79
2024/02/05 11:30:51;;;;;;;15.30;4.00;;;11.00;99.90;;;;;;6221169;23;20248;-80
2024/02/05 11:33:26;;;;;;;12.50;3.80;;;11.10;99.90;;;;;;6222433;23;20079;-80
2024/02/05 11:35:54;;;;;;;;;;;11.20;99.90;;;;;;6223474;23;19997;-80
2024/02/05 11:38:21;;;;;;;10.67;2.60;;;11.20;99.90;;;;;;6223634;23;19900;-80
2024/02/05 11:40:51;;;;;;;13.13;3.00;;;11.30;99.90;;;;;;6219979;23;20016;-80
2024/02/05 11:43:24;;;;;;;19.57;3.77;;;11.50;99.90;;;;;;6221287;23;20009;-80
2024/02/05 11:45:51;;;;;;;14.07;2.30;;;11.50;99.90;;;;;;6223414;23;20083;-80
2024/02/05 11:48:18;;;;;;;13.63;2.50;;;11.50;99.90;;;;;;6223223;23;20336;-80
2024/02/05 11:50:44;;;;;;;8.07;2.07;;;11.50;99.90;;;;;;6222261;23;19996;-80
2024/02/05 11:53:10;;;;;;;10.00;2.37;;;11.50;99.90;;;;;;6220250;23;20458;-78
2024/02/05 11:55:36;;;;;;;8.60;2.40;;;11.70;99.90;;;;;;6212716;23;20057;-74
2024/02/05 11:58:01;;;;;;;9.93;2.10;;;11.80;99.90;;;;;;6212778;23;20086;-74
2024/02/05 12:00:27;;;;;;;8.73;2.55;;;11.80;99.90;;;;;;6212831;23;20007;-73
2024/02/05 12:02:54;;;;;;;11.27;3.00;;;11.80;99.90;;;;;;6212410;23;20391;-74
2024/02/05 12:05:21;;;;;;;9.38;2.40;;;12.00;99.90;;;;;;6212167;23;20008;-74
2024/02/05 12:07:46;;;;;;;8.77;2.20;;;12.10;99.90;;;;;;6212434;23;20016;-73
2024/02/05 12:10:13;;;;;;;11.48;2.80;;;12.20;99.90;;;;;;6212944;23;20000;-74
2024/02/05 12:12:39;;;;;;;7.13;2.15;;;12.30;99.90;;;;;;6212830;23;20007;-74
2024/02/05 12:15:15;;;;;;;13.23;2.58;;;12.60;99.90;;;;;;6212125;23;20000;-74
2024/02/05 12:17:41;;;;;;;10.63;2.45;;;12.70;99.90;;;;;;6210191;23;20032;-74
2024/02/05 12:20:07;;;;;;;10.10;2.40;;;12.70;99.90;;;;;;6212286;23;20000;-73
2024/02/05 12:22:33;;;;;;;7.40;2.23;;;12.90;99.90;;;;;;6211493;23;20480;-74
2024/02/05 12:24:58;;;;;;;9.43;2.90;;;12.90;99.90;;;;;;6212650;23;20005;-73
2024/02/05 12:27:25;;;;;;;10.90;2.40;;;13.10;99.90;;;;;;6214104;23;20016;-73
2024/02/05 12:29:51;;;;;;;10.77;3.03;;;13.20;99.90;;;;;;6213231;23;20450;-74
2024/02/05 12:32:16;;;;;;;17.08;3.28;;;13.20;99.90;;;;;;6212097;23;20008;-73
2024/02/05 12:34:45;;;;;;;12.00;2.80;;;13.30;99.90;;;;;;6213279;23;20001;-74
2024/02/05 12:37:10;;;;;;;12.63;2.90;;;13.30;99.90;;;;;;6214182;23;19900;-74
2024/02/05 12:39:37;;;;;;;10.50;2.40;;;13.40;99.90;;;;;;6213836;23;20059;-74
2024/02/05 12:42:03;;;;;;;;;;;13.40;99.90;;;;;;6213621;23;20032;-74
2024/02/05 12:44:29;;;;;;;8.15;2.30;;;13.50;99.90;;;;;;6213381;23;20354;-73
2024/02/05 12:46:55;;;;;;;9.40;2.40;;;13.50;99.90;;;;;;6213696;23;20430;-74
2024/02/05 12:49:22;;;;;;;12.07;2.65;;;13.50;99.90;;;;;;6214474;23;19907;-74
2024/02/05 12:51:48;;;;;;;8.25;2.70;;;13.50;99.90;;;;;;6214181;23;19951;-74